sensor_id;sensor_type;location;lat;lon;timestamp;pressure;altitude;pressure_sealevel;temperature;humidity
46392;BME280;32098;49.448;7.904;2023-06-10T00:01:55;97755.25;;;16.97;54.21
46392;BME280;32098;49.448;7.904;2023-06-10T00:04:27;97810.38;;;17.19;54.68
46392;BME280;32098;49.448;7.904;2023-06-10T00:06:54;97819.28;;;17.20;54.76
46392;BME280;32098;49.448;7.904;2023-06-10T00:09:20;97824.72;;;17.15;55.27
46392;BME280;32098;49.448;7.904;2023-06-10T00:11:47;97816.59;;;17.25;54.71
46392;BME280;32098;49.448;7.904;2023-06-10T00:14:14;97813.38;;;17.18;54.85
46392;BME280;32098;49.448;7.904;2023-06-10T00:16:40;97813.38;;;17.18;54.42
46392;BME280;32098;49.448;7.904;2023-06-10T00:19:07;97813.72;;;17.11;54.44
46392;BME280;32098;49.448;7.904;2023-06-10T00:21:34;97816.25;;;16.93;55.38
46392;BME280;32098;49.448;7.904;2023-06-10T00:24:07;97809.38;;;16.76;55.80
46392;BME280;32098;49.448;7.904;2023-06-10T00:26:39;97815.97;;;16.50;57.06
46392;BME280;32098;49.448;7.904;2023-06-10T00:29:07;97816.84;;;16.31;57.91
46392;BME280;32098;49.448;7.904;2023-06-10T00:31:34;97808.97;;;16.44;57.43
46392;BME280;32098;49.448;7.904;2023-06-10T00:34:01;97811.72;;;16.24;57.97
46392;BME280;32098;49.448;7.904;2023-06-10T00:36:30;97806.41;;;16.09;58.30
46392;BME280;32098;49.448;7.904;2023-06-10T00:38:57;97817.19;;;16.04;58.84
46392;BME280;32098;49.448;7.904;2023-06-10T00:41:24;97820.50;;;15.81;59.63
46392;BME280;32098;49.448;7.904;2023-06-10T00:43:50;97819.47;;;15.56;60.22
46392;BME280;32098;49.448;7.904;2023-06-10T00:46:17;97815.41;;;15.34;61.10
46392;BME280;32098;49.448;7.904;2023-06-10T00:48:45;97815.97;;;15.11;62.05
46392;BME280;32098;49.448;7.904;2023-06-10T00:51:12;97813.53;;;15.09;62.00
46392;BME280;32098;49.448;7.904;2023-06-10T00:53:40;97813.53;;;15.14;62.20
46392;BME280;32098;49.448;7.904;2023-06-10T00:56:08;97817.84;;;15.15;62.09
46392;BME280;32098;49.448;7.904;2023-06-10T00:58:35;97820.78;;;15.19;62.13
46392;BME280;32098;49.448;7.904;2023-06-10T01:01:03;97794.44;;;15.16;61.49
46392;BME280;32098;49.448;7.904;2023-06-10T01:03:33;97821.09;;;15.52;61.04
46392;BME280;32098;49.448;7.904;2023-06-10T01:06:13;97798.47;;;15.43;60.68
46392;BME280;32098;49.448;7.904;2023-06-10T01:08:46;97820.00;;;15.64;60.59
46392;BME280;32098;49.448;7.904;2023-06-10T01:11:21;97825.41;;;15.64;60.71
46392;BME280;32098;49.448;7.904;2023-06-10T01:13:50;97832.91;;;15.72;60.29
46392;BME280;32098;49.448;7.904;2023-06-10T01:16:19;97826.19;;;15.64;60.50
46392;BME280;32098;49.448;7.904;2023-06-10T01:18:46;97826.44;;;15.78;59.98
46392;BME280;32098;49.448;7.904;2023-06-10T01:21:20;97827.22;;;15.88;59.73
46392;BME280;32098;49.448;7.904;2023-06-10T01:23:47;97829.06;;;16.03;59.14
46392;BME280;32098;49.448;7.904;2023-06-10T01:26:15;97821.03;;;15.88;59.40
46392;BME280;32098;49.448;7.904;2023-06-10T01:28:58;97803.81;;;15.89;58.85
46392;BME280;32098;49.448;7.904;2023-06-10T01:31:41;97831.25;;;15.96;59.01
46392;BME280;32098;49.448;7.904;2023-06-10T01:34:14;97832.31;;;15.95;58.90
46392;BME280;32098;49.448;7.904;2023-06-10T01:36:44;97830.16;;;15.97;58.66
46392;BME280;32098;49.448;7.904;2023-06-10T01:39:13;97834.16;;;16.04;58.21
46392;BME280;32098;49.448;7.904;2023-06-10T01:41:40;97836.59;;;16.11;58.20
46392;BME280;32098;49.448;7.904;2023-06-10T01:44:07;97812.06;;;16.07;57.60
46392;BME280;32098;49.448;7.904;2023-06-10T01:46:34;97836.84;;;16.14;58.00
46392;BME280;32098;49.448;7.904;2023-06-10T01:49:01;97838.16;;;16.17;58.03
46392;BME280;32098;49.448;7.904;2023-06-10T01:51:27;97843.59;;;16.07;58.41
46392;BME280;32098;49.448;7.904;2023-06-10T01:53:54;97841.44;;;15.99;58.38
46392;BME280;32098;49.448;7.904;2023-06-10T01:56:20;97848.78;;;15.73;59.27
46392;BME280;32098;49.448;7.904;2023-06-10T01:58:48;97838.84;;;15.64;59.64
46392;BME280;32098;49.448;7.904;2023-06-10T02:01:14;97843.41;;;15.73;59.42
46392;BME280;32098;49.448;7.904;2023-06-10T02:03:41;97846.13;;;15.63;59.77
46392;BME280;32098;49.448;7.904;2023-06-10T02:06:08;97848.53;;;15.65;59.81
46392;BME280;32098;49.448;7.904;2023-06-10T02:08:34;97847.47;;;15.50;60.10
46392;BME280;32098;49.448;7.904;2023-06-10T02:11:01;97841.81;;;15.47;60.50
46392;BME280;32098;49.448;7.904;2023-06-10T02:13:28;97843.66;;;15.41;60.67
46392;BME280;32098;49.448;7.904;2023-06-10T02:15:55;97850.66;;;15.32;60.71
46392;BME280;32098;49.448;7.904;2023-06-10T02:18:22;97847.97;;;15.27;61.07
46392;BME280;32098;49.448;7.904;2023-06-10T02:20:49;97852.00;;;15.20;61.18
46392;BME280;32098;49.448;7.904;2023-06-10T02:23:15;97851.19;;;15.24;61.12
46392;BME280;32098;49.448;7.904;2023-06-10T02:25:42;97851.19;;;15.29;60.98
46392;BME280;32098;49.448;7.904;2023-06-10T02:28:08;97856.31;;;15.16;60.71
46392;BME280;32098;49.448;7.904;2023-06-10T02:30:35;97850.94;;;15.16;60.97
46392;BME280;32098;49.448;7.904;2023-06-10T02:33:03;97856.53;;;14.99;61.54
46392;BME280;32098;49.448;7.904;2023-06-10T02:35:30;97849.03;;;15.01;61.65
46392;BME280;32098;49.448;7.904;2023-06-10T02:37:56;97856.28;;;14.96;61.15
46392;BME280;32098;49.448;7.904;2023-06-10T02:40:23;97860.88;;;15.05;60.83
46392;BME280;32098;49.448;7.904;2023-06-10T02:42:50;97861.38;;;14.97;61.10
46392;BME280;32098;49.448;7.904;2023-06-10T02:45:18;97859.50;;;14.98;61.11
46392;BME280;32098;49.448;7.904;2023-06-10T02:47:45;97859.19;;;14.84;62.09
46392;BME280;32098;49.448;7.904;2023-06-10T02:50:12;97836.03;;;14.58;62.67
46392;BME280;32098;49.448;7.904;2023-06-10T02:52:59;97858.38;;;14.68;62.42
46392;BME280;32098;49.448;7.904;2023-06-10T02:55:26;97860.63;;;14.35;63.64
46392;BME280;32098;49.448;7.904;2023-06-10T02:57:58;97862.78;;;14.33;64.57
46392;BME280;32098;49.448;7.904;2023-06-10T03:00:26;97863.53;;;14.18;65.85
46392;BME280;32098;49.448;7.904;2023-06-10T03:02:53;97856.28;;;14.18;65.09
46392;BME280;32098;49.448;7.904;2023-06-10T03:05:29;97863.25;;;14.19;65.09
46392;BME280;32098;49.448;7.904;2023-06-10T03:07:58;97865.50;;;14.38;63.98
46392;BME280;32098;49.448;7.904;2023-06-10T03:10:24;97861.19;;;14.42;63.44
46392;BME280;32098;49.448;7.904;2023-06-10T03:12:51;97867.63;;;14.36;63.48
46392;BME280;32098;49.448;7.904;2023-06-10T03:15:18;97869.53;;;14.40;62.86
46392;BME280;32098;49.448;7.904;2023-06-10T03:17:47;97867.66;;;14.41;63.35
46392;BME280;32098;49.448;7.904;2023-06-10T03:20:14;97867.63;;;14.30;64.02
46392;BME280;32098;49.448;7.904;2023-06-10T03:22:43;97865.66;;;14.21;64.21
46392;BME280;32098;49.448;7.904;2023-06-10T03:25:10;97868.06;;;14.12;63.94
46392;BME280;32098;49.448;7.904;2023-06-10T03:27:42;97871.50;;;14.03;64.65
46392;BME280;32098;49.448;7.904;2023-06-10T03:30:09;97876.66;;;14.14;64.25
46392;BME280;32098;49.448;7.904;2023-06-10T03:32:38;97876.66;;;14.14;63.74
46392;BME280;32098;49.448;7.904;2023-06-10T03:35:07;97877.06;;;13.96;64.86
46392;BME280;32098;49.448;7.904;2023-06-10T03:37:35;97879.31;;;14.09;64.06
46392;BME280;32098;49.448;7.904;2023-06-10T03:40:03;97876.09;;;14.12;63.77
46392;BME280;32098;49.448;7.904;2023-06-10T03:42:32;97876.66;;;14.14;63.20
46392;BME280;32098;49.448;7.904;2023-06-10T03:44:59;97841.13;;;13.97;62.68
46392;BME280;32098;49.448;7.904;2023-06-10T03:47:33;97845.94;;;13.95;63.13
46392;BME280;32098;49.448;7.904;2023-06-10T03:50:03;97881.19;;;14.09;63.37
46392;BME280;32098;49.448;7.904;2023-06-10T03:52:31;97877.75;;;14.18;62.60
46392;BME280;32098;49.448;7.904;2023-06-10T03:54:58;97876.69;;;14.24;63.96
46392;BME280;32098;49.448;7.904;2023-06-10T03:57:25;97876.69;;;14.24;63.82
46392;BME280;32098;49.448;7.904;2023-06-10T03:59:52;97883.75;;;14.36;63.67
46392;BME280;32098;49.448;7.904;2023-06-10T04:02:19;97882.41;;;14.38;63.43
46392;BME280;32098;49.448;7.904;2023-06-10T04:04:45;97881.75;;;14.11;65.50
46392;BME280;32098;49.448;7.904;2023-06-10T04:07:13;97885.88;;;14.33;64.78
46392;BME280;32098;49.448;7.904;2023-06-10T04:09:40;97885.09;;;14.33;65.36
46392;BME280;32098;49.448;7.904;2023-06-10T04:12:07;97880.44;;;14.80;63.19
46392;BME280;32098;49.448;7.904;2023-06-10T04:14:36;97887.25;;;15.08;62.37
46392;BME280;32098;49.448;7.904;2023-06-10T04:17:05;97884.59;;;15.43;61.05
46392;BME280;32098;49.448;7.904;2023-06-10T04:19:36;97887.84;;;15.71;59.94
46392;BME280;32098;49.448;7.904;2023-06-10T04:22:02;97839.38;;;15.66;59.28
46392;BME280;32098;49.448;7.904;2023-06-10T04:24:31;97884.50;;;16.14;58.47
46392;BME280;32098;49.448;7.904;2023-06-10T04:26:57;97885.00;;;16.36;57.98
46392;BME280;32098;49.448;7.904;2023-06-10T04:29:24;97897.09;;;16.59;57.22
46392;BME280;32098;49.448;7.904;2023-06-10T04:31:52;97896.19;;;16.78;56.34
46392;BME280;32098;49.448;7.904;2023-06-10T04:34:19;97893.78;;;16.67;56.42
46392;BME280;32098;49.448;7.904;2023-06-10T04:36:46;97896.78;;;16.65;56.61
46392;BME280;32098;49.448;7.904;2023-06-10T04:39:13;97885.00;;;16.46;56.68
46392;BME280;32098;49.448;7.904;2023-06-10T04:41:39;97908.75;;;16.14;58.03
46392;BME280;32098;49.448;7.904;2023-06-10T04:44:07;97901.19;;;16.31;58.08
46392;BME280;32098;49.448;7.904;2023-06-10T04:46:33;97902.28;;;16.25;58.36
46392;BME280;32098;49.448;7.904;2023-06-10T04:49:00;97900.38;;;16.41;58.96
46392;BME280;32098;49.448;7.904;2023-06-10T04:51:27;97894.41;;;16.59;58.39
46392;BME280;32098;49.448;7.904;2023-06-10T04:53:54;97898.28;;;16.87;57.76
46392;BME280;32098;49.448;7.904;2023-06-10T04:56:20;97902.28;;;17.43;56.42
46392;BME280;32098;49.448;7.904;2023-06-10T04:58:48;97901.19;;;18.12;55.05
46392;BME280;32098;49.448;7.904;2023-06-10T05:01:15;97904.00;;;18.49;53.76
46392;BME280;32098;49.448;7.904;2023-06-10T05:03:41;97894.09;;;18.87;53.34
46392;BME280;32098;49.448;7.904;2023-06-10T05:06:08;97890.66;;;18.34;53.64
46392;BME280;32098;49.448;7.904;2023-06-10T05:08:34;97912.63;;;18.51;54.50
46392;BME280;32098;49.448;7.904;2023-06-10T05:11:01;97902.09;;;19.15;52.66
46392;BME280;32098;49.448;7.904;2023-06-10T05:13:28;97906.19;;;19.69;51.44
46392;BME280;32098;49.448;7.904;2023-06-10T05:15:54;97895.22;;;20.06;50.84
46392;BME280;32098;49.448;7.904;2023-06-10T05:18:21;97908.66;;;20.43;50.33
46392;BME280;32098;49.448;7.904;2023-06-10T05:20:48;97895.50;;;20.64;49.64
46392;BME280;32098;49.448;7.904;2023-06-10T05:23:15;97897.69;;;20.89;49.27
46392;BME280;32098;49.448;7.904;2023-06-10T05:25:42;97880.97;;;21.09;48.44
46392;BME280;32098;49.448;7.904;2023-06-10T05:28:08;97899.41;;;21.35;48.59
46392;BME280;32098;49.448;7.904;2023-06-10T05:30:40;97892.44;;;21.42;48.64
46392;BME280;32098;49.448;7.904;2023-06-10T05:33:07;97897.13;;;21.50;48.07
46392;BME280;32098;49.448;7.904;2023-06-10T05:35:34;97903.06;;;21.74;48.15
46392;BME280;32098;49.448;7.904;2023-06-10T05:38:00;97899.81;;;21.86;47.46
46392;BME280;32098;49.448;7.904;2023-06-10T05:40:29;97893.13;;;22.23;46.87
46392;BME280;32098;49.448;7.904;2023-06-10T05:42:55;97902.28;;;22.35;46.37
46392;BME280;32098;49.448;7.904;2023-06-10T05:45:22;97900.31;;;22.50;47.01
46392;BME280;32098;49.448;7.904;2023-06-10T05:47:48;97894.59;;;22.68;47.28
46392;BME280;32098;49.448;7.904;2023-06-10T05:50:15;97897.69;;;22.84;46.23
46392;BME280;32098;49.448;7.904;2023-06-10T05:52:42;97902.81;;;22.85;46.70
46392;BME280;32098;49.448;7.904;2023-06-10T05:55:09;97902.13;;;23.36;46.15
46392;BME280;32098;49.448;7.904;2023-06-10T05:57:36;97908.69;;;23.61;45.45
46392;BME280;32098;49.448;7.904;2023-06-10T06:00:03;97912.06;;;23.92;44.81
46392;BME280;32098;49.448;7.904;2023-06-10T06:02:37;97912.38;;;23.31;44.68
46392;BME280;32098;49.448;7.904;2023-06-10T06:05:04;97909.19;;;23.54;44.72
46392;BME280;32098;49.448;7.904;2023-06-10T06:07:32;97907.06;;;23.68;43.98
46392;BME280;32098;49.448;7.904;2023-06-10T06:09:58;97914.28;;;24.07;43.29
46392;BME280;32098;49.448;7.904;2023-06-10T06:12:25;97909.69;;;24.28;42.45
46392;BME280;32098;49.448;7.904;2023-06-10T06:14:51;97910.44;;;24.55;42.34
46392;BME280;32098;49.448;7.904;2023-06-10T06:17:18;97908.53;;;24.84;41.93
46392;BME280;32098;49.448;7.904;2023-06-10T06:19:44;97905.97;;;25.09;41.56
46392;BME280;32098;49.448;7.904;2023-06-10T06:22:13;97905.88;;;25.46;40.75
46392;BME280;32098;49.448;7.904;2023-06-10T06:24:40;97912.41;;;25.54;40.33
46392;BME280;32098;49.448;7.904;2023-06-10T06:27:06;97909.88;;;25.70;40.79
46392;BME280;32098;49.448;7.904;2023-06-10T06:29:33;97915.75;;;25.80;39.15
46392;BME280;32098;49.448;7.904;2023-06-10T06:32:00;97913.44;;;26.03;39.57
46392;BME280;32098;49.448;7.904;2023-06-10T06:34:26;97919.81;;;26.07;38.42
46392;BME280;32098;49.448;7.904;2023-06-10T06:36:53;97913.66;;;26.10;37.60
46392;BME280;32098;49.448;7.904;2023-06-10T06:39:20;97915.78;;;26.25;38.22
46392;BME280;32098;49.448;7.904;2023-06-10T06:41:47;97857.97;;;25.94;37.25
46392;BME280;32098;49.448;7.904;2023-06-10T06:44:13;97915.28;;;26.56;37.99
46392;BME280;32098;49.448;7.904;2023-06-10T06:46:43;97917.81;;;26.85;38.01
46392;BME280;32098;49.448;7.904;2023-06-10T06:49:09;97915.66;;;26.91;37.52
46392;BME280;32098;49.448;7.904;2023-06-10T06:51:35;97921.31;;;27.22;36.72
46392;BME280;32098;49.448;7.904;2023-06-10T06:54:03;97916.88;;;27.05;36.14
46392;BME280;32098;49.448;7.904;2023-06-10T06:56:31;97924.53;;;27.00;35.66
46392;BME280;32098;49.448;7.904;2023-06-10T06:58:58;97901.22;;;26.33;36.64
46392;BME280;32098;49.448;7.904;2023-06-10T07:01:24;97912.69;;;26.83;36.12
46392;BME280;32098;49.448;7.904;2023-06-10T07:03:51;97921.78;;;27.12;35.49
46392;BME280;32098;49.448;7.904;2023-06-10T07:06:18;97922.34;;;27.17;35.69
46392;BME280;32098;49.448;7.904;2023-06-10T07:08:44;97917.63;;;27.30;34.87
46392;BME280;32098;49.448;7.904;2023-06-10T07:11:11;97913.50;;;27.48;35.45
46392;BME280;32098;49.448;7.904;2023-06-10T07:13:37;97919.31;;;27.86;36.00
46392;BME280;32098;49.448;7.904;2023-06-10T07:16:04;97920.81;;;28.12;34.98
46392;BME280;32098;49.448;7.904;2023-06-10T07:18:30;97918.84;;;28.12;34.95
46392;BME280;32098;49.448;7.904;2023-06-10T07:20:57;97914.06;;;27.93;33.84
46392;BME280;32098;49.448;7.904;2023-06-10T07:23:23;97915.34;;;27.44;34.50
46392;BME280;32098;49.448;7.904;2023-06-10T07:25:50;97924.72;;;27.43;34.15
46392;BME280;32098;49.448;7.904;2023-06-10T07:28:16;97923.78;;;26.30;35.42
46392;BME280;32098;49.448;7.904;2023-06-10T07:30:43;97935.22;;;25.79;36.08
46392;BME280;32098;49.448;7.904;2023-06-10T07:33:10;97928.00;;;25.95;36.97
46392;BME280;32098;49.448;7.904;2023-06-10T07:35:37;97899.38;;;26.25;35.28
46392;BME280;32098;49.448;7.904;2023-06-10T07:38:04;97917.19;;;26.43;35.55
46392;BME280;32098;49.448;7.904;2023-06-10T07:40:30;97926.38;;;25.94;36.06
46392;BME280;32098;49.448;7.904;2023-06-10T07:43:00;97928.84;;;26.64;36.99
46392;BME280;32098;49.448;7.904;2023-06-10T07:45:27;97917.88;;;26.40;35.41
46392;BME280;32098;49.448;7.904;2023-06-10T07:47:53;97912.75;;;25.52;36.64
46392;BME280;32098;49.448;7.904;2023-06-10T07:50:20;97918.00;;;25.57;36.65
46392;BME280;32098;49.448;7.904;2023-06-10T07:52:46;97928.16;;;25.57;37.73
46392;BME280;32098;49.448;7.904;2023-06-10T07:55:13;97926.97;;;26.32;36.80
46392;BME280;32098;49.448;7.904;2023-06-10T07:57:39;97917.63;;;26.33;36.01
46392;BME280;32098;49.448;7.904;2023-06-10T08:00:06;97920.09;;;26.83;35.66
46392;BME280;32098;49.448;7.904;2023-06-10T08:02:39;97910.94;;;25.56;37.12
46392;BME280;32098;49.448;7.904;2023-06-10T08:05:06;97919.16;;;25.36;36.89
46392;BME280;32098;49.448;7.904;2023-06-10T08:07:33;97921.06;;;25.56;37.54
46392;BME280;32098;49.448;7.904;2023-06-10T08:10:00;97915.34;;;25.70;36.43
46392;BME280;32098;49.448;7.904;2023-06-10T08:12:27;97922.91;;;26.50;35.95
46392;BME280;32098;49.448;7.904;2023-06-10T08:14:53;97920.53;;;26.16;36.06
46392;BME280;32098;49.448;7.904;2023-06-10T08:17:21;97927.59;;;26.74;35.09
46392;BME280;32098;49.448;7.904;2023-06-10T08:19:48;97921.97;;;27.19;33.97
46392;BME280;32098;49.448;7.904;2023-06-10T08:22:14;97920.66;;;27.13;34.85
46392;BME280;32098;49.448;7.904;2023-06-10T08:24:41;97915.84;;;26.73;35.05
46392;BME280;32098;49.448;7.904;2023-06-10T08:27:07;97918.78;;;27.17;35.09
46392;BME280;32098;49.448;7.904;2023-06-10T08:29:34;97922.22;;;27.26;34.98
46392;BME280;32098;49.448;7.904;2023-06-10T08:32:00;97902.56;;;26.27;34.77
46392;BME280;32098;49.448;7.904;2023-06-10T08:34:27;97901.91;;;26.54;34.66
46392;BME280;32098;49.448;7.904;2023-06-10T08:36:54;97911.69;;;27.40;33.93
46392;BME280;32098;49.448;7.904;2023-06-10T08:39:22;97922.38;;;27.57;33.53
46392;BME280;32098;49.448;7.904;2023-06-10T08:44:28;97910.81;;;26.63;34.32
46392;BME280;32098;49.448;7.904;2023-06-10T08:47:00;97913.66;;;26.55;34.90
46392;BME280;32098;49.448;7.904;2023-06-10T08:49:30;97917.13;;;26.88;34.28
46392;BME280;32098;49.448;7.904;2023-06-10T08:52:02;97914.97;;;26.94;34.74
46392;BME280;32098;49.448;7.904;2023-06-10T08:54:32;97906.03;;;27.09;34.14
46392;BME280;32098;49.448;7.904;2023-06-10T08:57:02;97911.28;;;27.02;33.68
46392;BME280;32098;49.448;7.904;2023-06-10T08:59:30;97899.09;;;27.51;34.70
46392;BME280;32098;49.448;7.904;2023-06-10T09:01:57;97898.78;;;27.40;32.98
46392;BME280;32098;49.448;7.904;2023-06-10T09:04:24;97894.09;;;27.29;33.66
46392;BME280;32098;49.448;7.904;2023-06-10T09:06:52;97907.53;;;26.82;33.82
46392;BME280;32098;49.448;7.904;2023-06-10T09:09:19;97899.06;;;26.63;33.70
46392;BME280;32098;49.448;7.904;2023-06-10T09:11:46;97906.34;;;26.47;34.52
46392;BME280;32098;49.448;7.904;2023-06-10T09:14:13;97892.28;;;26.24;34.74
46392;BME280;32098;49.448;7.904;2023-06-10T09:16:40;97889.09;;;26.46;34.62
46392;BME280;32098;49.448;7.904;2023-06-10T09:19:08;97885.72;;;26.86;34.00
46392;BME280;32098;49.448;7.904;2023-06-10T09:21:35;97890.06;;;26.99;34.30
46392;BME280;32098;49.448;7.904;2023-06-10T09:24:05;97894.88;;;27.41;34.55
46392;BME280;32098;49.448;7.904;2023-06-10T09:26:32;97899.00;;;27.48;33.84
46392;BME280;32098;49.448;7.904;2023-06-10T09:29:06;97893.88;;;27.46;32.72
46392;BME280;32098;49.448;7.904;2023-06-10T09:31:35;97892.88;;;27.66;33.38
46392;BME280;32098;49.448;7.904;2023-06-10T09:34:09;97860.13;;;28.01;33.21
46392;BME280;32098;49.448;7.904;2023-06-10T09:36:37;97878.00;;;28.54;32.31
46392;BME280;32098;49.448;7.904;2023-06-10T09:39:04;97883.53;;;28.11;31.51
46392;BME280;32098;49.448;7.904;2023-06-10T09:41:32;97878.56;;;27.33;33.38
46392;BME280;32098;49.448;7.904;2023-06-10T09:44:00;97871.38;;;27.28;32.84
46392;BME280;32098;49.448;7.904;2023-06-10T09:46:31;97885.38;;;27.51;34.16
46392;BME280;32098;49.448;7.904;2023-06-10T09:48:58;97883.41;;;27.91;32.82
46392;BME280;32098;49.448;7.904;2023-06-10T09:51:25;97883.00;;;28.21;31.57
46392;BME280;32098;49.448;7.904;2023-06-10T09:53:53;97879.81;;;28.34;31.90
46392;BME280;32098;49.448;7.904;2023-06-10T09:56:20;97878.22;;;28.33;32.85
46392;BME280;32098;49.448;7.904;2023-06-10T09:58:47;97879.72;;;28.31;31.34
46392;BME280;32098;49.448;7.904;2023-06-10T10:01:14;97879.00;;;27.75;32.33
46392;BME280;32098;49.448;7.904;2023-06-10T10:03:46;97876.59;;;27.73;32.39
46392;BME280;32098;49.448;7.904;2023-06-10T10:06:14;97875.38;;;27.19;33.67
46392;BME280;32098;49.448;7.904;2023-06-10T10:08:41;97877.19;;;27.39;33.83
46392;BME280;32098;49.448;7.904;2023-06-10T10:11:08;97879.28;;;27.85;33.17
46392;BME280;32098;49.448;7.904;2023-06-10T10:13:35;97879.19;;;27.54;33.21
46392;BME280;32098;49.448;7.904;2023-06-10T10:16:15;97854.72;;;27.09;33.94
46392;BME280;32098;49.448;7.904;2023-06-10T10:18:46;97874.56;;;26.78;34.47
46392;BME280;32098;49.448;7.904;2023-06-10T10:21:15;97870.53;;;26.76;34.00
46392;BME280;32098;49.448;7.904;2023-06-10T10:26:17;97878.91;;;25.78;35.50
46392;BME280;32098;49.448;7.904;2023-06-10T10:29:07;97873.03;;;25.88;35.66
46392;BME280;32098;49.448;7.904;2023-06-10T10:31:37;97871.78;;;25.65;36.34
46392;BME280;32098;49.448;7.904;2023-06-10T10:34:12;97877.81;;;25.37;36.82
46392;BME280;32098;49.448;7.904;2023-06-10T10:36:40;97871.44;;;25.66;35.91
46392;BME280;32098;49.448;7.904;2023-06-10T10:39:08;97890.19;;;25.55;36.66
46392;BME280;32098;49.448;7.904;2023-06-10T10:41:36;97876.91;;;25.66;36.91
46392;BME280;32098;49.448;7.904;2023-06-10T10:44:06;97866.16;;;25.82;35.94
46392;BME280;32098;49.448;7.904;2023-06-10T10:46:44;97874.91;;;25.75;35.98
46392;BME280;32098;49.448;7.904;2023-06-10T10:49:15;97878.47;;;25.76;36.56
46392;BME280;32098;49.448;7.904;2023-06-10T10:51:58;97843.44;;;25.48;36.79
46392;BME280;32098;49.448;7.904;2023-06-10T10:54:36;97862.16;;;25.58;36.93
46392;BME280;32098;49.448;7.904;2023-06-10T11:05:02;97862.13;;;24.47;38.28
46392;BME280;32098;49.448;7.904;2023-06-10T11:07:30;97873.72;;;24.35;38.40
46392;BME280;32098;49.448;7.904;2023-06-10T11:09:59;97870.31;;;24.76;38.37
46392;BME280;32098;49.448;7.904;2023-06-10T11:15:07;97869.47;;;25.13;37.11
46392;BME280;32098;49.448;7.904;2023-06-10T11:17:34;97867.44;;;25.64;37.76
46392;BME280;32098;49.448;7.904;2023-06-10T11:20:00;97862.56;;;26.14;36.80
46392;BME280;32098;49.448;7.904;2023-06-10T11:22:27;97853.00;;;26.08;36.33
46392;BME280;32098;49.448;7.904;2023-06-10T11:24:53;97854.44;;;26.38;36.29
46392;BME280;32098;49.448;7.904;2023-06-10T11:27:24;97858.53;;;26.32;36.21
46392;BME280;32098;49.448;7.904;2023-06-10T11:32:31;97859.06;;;25.48;37.46
46392;BME280;32098;49.448;7.904;2023-06-10T11:34:59;97836.13;;;25.20;36.99
46392;BME280;32098;49.448;7.904;2023-06-10T11:37:27;97855.44;;;24.94;38.02
46392;BME280;32098;49.448;7.904;2023-06-10T11:39:54;97852.69;;;24.35;38.82
46392;BME280;32098;49.448;7.904;2023-06-10T11:42:22;97860.66;;;24.58;38.89
46392;BME280;32098;49.448;7.904;2023-06-10T11:44:50;97859.97;;;24.90;38.18
46392;BME280;32098;49.448;7.904;2023-06-10T11:47:18;97844.41;;;25.32;36.85
46392;BME280;32098;49.448;7.904;2023-06-10T11:49:45;97845.84;;;25.71;36.90
46392;BME280;32098;49.448;7.904;2023-06-10T11:52:17;97850.53;;;25.82;37.02
46392;BME280;32098;49.448;7.904;2023-06-10T11:54:53;97849.34;;;25.18;36.89
46392;BME280;32098;49.448;7.904;2023-06-10T11:57:19;97841.53;;;25.08;38.10
46392;BME280;32098;49.448;7.904;2023-06-10T11:59:46;97849.81;;;25.20;37.11
46392;BME280;32098;49.448;7.904;2023-06-10T12:02:16;97845.47;;;25.39;37.48
46392;BME280;32098;49.448;7.904;2023-06-10T12:04:43;97833.25;;;25.37;36.88
46392;BME280;32098;49.448;7.904;2023-06-10T12:07:17;97835.13;;;25.66;36.25
46392;BME280;32098;49.448;7.904;2023-06-10T12:09:43;97844.84;;;25.34;37.61
46392;BME280;32098;49.448;7.904;2023-06-10T12:12:10;97843.09;;;24.88;36.84
46392;BME280;32098;49.448;7.904;2023-06-10T12:14:55;97849.31;;;24.97;37.40
46392;BME280;32098;49.448;7.904;2023-06-10T12:20:04;97837.41;;;25.22;36.14
46392;BME280;32098;49.448;7.904;2023-06-10T12:22:41;97840.03;;;25.51;36.56
46392;BME280;32098;49.448;7.904;2023-06-10T12:25:09;97813.03;;;25.83;35.41
46392;BME280;32098;49.448;7.904;2023-06-10T12:27:38;97828.13;;;26.01;35.24
46392;BME280;32098;49.448;7.904;2023-06-10T12:30:05;97825.22;;;25.73;34.91
46392;BME280;32098;49.448;7.904;2023-06-10T12:32:40;97837.22;;;25.81;34.56
46392;BME280;32098;49.448;7.904;2023-06-10T12:35:08;97833.03;;;25.95;33.78
46392;BME280;32098;49.448;7.904;2023-06-10T12:37:36;97833.44;;;26.42;33.96
46392;BME280;32098;49.448;7.904;2023-06-10T12:40:08;97806.28;;;26.25;33.06
46392;BME280;32098;49.448;7.904;2023-06-10T12:42:36;97820.66;;;26.58;32.90
46392;BME280;32098;49.448;7.904;2023-06-10T12:45:04;97832.97;;;26.52;32.78
46392;BME280;32098;49.448;7.904;2023-06-10T12:47:37;97835.03;;;26.43;32.63
46392;BME280;32098;49.448;7.904;2023-06-10T12:50:08;97834.72;;;26.00;33.44
46392;BME280;32098;49.448;7.904;2023-06-10T12:52:35;97829.66;;;26.23;33.55
46392;BME280;32098;49.448;7.904;2023-06-10T12:55:02;97845.69;;;26.12;33.65
46392;BME280;32098;49.448;7.904;2023-06-10T12:57:30;97814.75;;;25.87;33.26
46392;BME280;32098;49.448;7.904;2023-06-10T12:59:57;97822.34;;;26.39;33.73
46392;BME280;32098;49.448;7.904;2023-06-10T13:02:29;97813.56;;;26.57;32.08
46392;BME280;32098;49.448;7.904;2023-06-10T13:04:56;97808.56;;;26.23;32.76
46392;BME280;32098;49.448;7.904;2023-06-10T13:07:23;97825.53;;;25.72;33.82
46392;BME280;32098;49.448;7.904;2023-06-10T13:09:49;97818.31;;;25.88;33.62
46392;BME280;32098;49.448;7.904;2023-06-10T13:12:16;97810.78;;;25.97;33.64
46392;BME280;32098;49.448;7.904;2023-06-10T13:14:56;97812.72;;;25.96;33.92
46392;BME280;32098;49.448;7.904;2023-06-10T13:17:22;97809.88;;;25.93;33.83
46392;BME280;32098;49.448;7.904;2023-06-10T13:19:49;97818.41;;;25.91;33.77
46392;BME280;32098;49.448;7.904;2023-06-10T13:22:16;97814.22;;;26.18;32.99
46392;BME280;32098;49.448;7.904;2023-06-10T13:24:42;97804.13;;;26.31;32.89
46392;BME280;32098;49.448;7.904;2023-06-10T13:27:11;97797.72;;;26.63;33.00